createdAt,value
2023-04-12T00:00:41.724Z,0.82
2023-04-12T00:01:43.628Z,1.10
2023-04-12T00:02:45.528Z,1.10
2023-04-12T00:03:51.030Z,1.00
2023-04-12T00:04:58.016Z,0.90
2023-04-12T00:06:07.368Z,1.10
2023-04-12T00:07:10.169Z,0.98
2023-04-12T00:08:11.944Z,1.25
2023-04-12T00:09:14.542Z,1.23
2023-04-12T00:10:16.586Z,0.80
2023-04-12T00:11:18.440Z,0.82
2023-04-12T00:12:20.763Z,0.90
2023-04-12T00:13:22.563Z,1.05
2023-04-12T00:14:25.403Z,0.80
2023-04-12T00:15:27.780Z,1.13
2023-04-12T00:16:29.661Z,0.90
2023-04-12T00:17:31.533Z,0.77
2023-04-12T00:18:33.396Z,1.13
2023-04-12T00:19:35.406Z,0.90
2023-04-12T00:20:37.481Z,1.10
2023-04-12T00:21:39.332Z,0.82
2023-04-12T00:22:44.788Z,0.75
2023-04-12T00:23:47.578Z,0.70
2023-04-12T00:24:49.371Z,1.00
2023-04-12T00:25:51.282Z,0.80
2023-04-12T00:26:53.286Z,0.90
2023-04-12T00:27:55.051Z,1.23
2023-04-12T00:28:57.881Z,0.88
2023-04-12T00:29:59.708Z,1.13
2023-04-12T00:31:02.874Z,0.80
2023-04-12T00:32:06.003Z,1.08
2023-04-12T00:33:08.040Z,1.13
2023-04-12T00:34:09.812Z,1.25
2023-04-12T00:35:11.712Z,1.30
2023-04-12T00:36:14.414Z,1.05
2023-04-12T00:37:17.270Z,1.10
2023-04-12T00:38:19.174Z,1.05
2023-04-12T00:39:21.033Z,1.27
2023-04-12T00:40:22.930Z,1.40
2023-04-12T00:41:26.490Z,1.20
2023-04-12T00:42:28.591Z,1.40
2023-04-12T00:43:30.367Z,1.10
2023-04-12T00:44:33.998Z,1.13
2023-04-12T00:45:37.583Z,1.10
2023-04-12T00:46:39.790Z,1.08
2023-04-12T00:47:45.449Z,1.30
2023-04-12T00:48:48.428Z,1.35
2023-04-12T00:49:51.540Z,1.10
2023-04-12T00:50:55.660Z,1.33
2023-04-12T00:52:18.140Z,1.27
2023-04-12T00:53:19.961Z,1.55
2023-04-12T00:54:22.269Z,1.30
2023-04-12T00:55:24.588Z,1.30
2023-04-12T00:56:28.522Z,1.10
2023-04-12T00:57:40.479Z,0.80
2023-04-12T00:58:42.547Z,1.08
2023-04-12T00:59:44.509Z,1.00
2023-04-12T01:00:50.332Z,1.20
2023-04-12T01:01:52.950Z,1.20
2023-04-12T01:02:55.109Z,1.10
2023-04-12T01:04:01.506Z,1.10
2023-04-12T01:05:06.491Z,0.90
2023-04-12T01:06:27.137Z,1.05
2023-04-12T01:07:38.943Z,1.00
2023-04-12T01:09:11.369Z,0.90
2023-04-12T01:10:25.358Z,0.73
2023-04-12T01:12:06.887Z,1.00
2023-04-12T01:13:49.148Z,0.93
2023-04-12T01:15:07.257Z,1.10
2023-04-12T01:16:12.731Z,0.80
2023-04-12T01:17:20.950Z,0.90
2023-04-12T01:18:25.720Z,0.80
2023-04-12T01:20:01.701Z,1.30
2023-04-12T01:21:08.932Z,1.15
2023-04-12T01:22:23.891Z,0.95
2023-04-12T01:23:43.678Z,0.80
2023-04-12T01:25:10.359Z,0.85
2023-04-12T01:26:37.213Z,0.93
2023-04-12T01:28:14.473Z,0.82
2023-04-12T01:29:19.285Z,1.08
2023-04-12T01:30:24.297Z,1.00
2023-04-12T01:31:28.697Z,1.00
2023-04-12T01:32:31.729Z,1.00
2023-04-12T01:33:36.846Z,0.88
2023-04-12T01:34:41.652Z,0.98
2023-04-12T01:35:44.590Z,0.90
2023-04-12T01:36:48.608Z,0.80
2023-04-12T01:37:50.721Z,1.00
2023-04-12T01:38:52.668Z,0.77
2023-04-12T01:39:54.530Z,0.90
2023-04-12T01:40:56.596Z,1.00
2023-04-12T01:41:59.765Z,1.00
2023-04-12T01:43:09.325Z,1.02
2023-04-12T01:44:16.428Z,0.80
2023-04-12T01:45:18.382Z,1.17
2023-04-12T01:46:23.296Z,0.98
2023-04-12T01:47:27.201Z,0.95
2023-04-12T01:48:29.090Z,0.90
2023-04-12T01:49:39.642Z,0.90
2023-04-12T01:50:59.917Z,1.00
2023-04-12T01:52:12.148Z,1.20
2023-04-12T01:53:25.609Z,1.20
2023-04-12T01:54:34.400Z,1.00
2023-04-12T01:55:39.247Z,1.20
2023-04-12T01:56:46.632Z,0.88
2023-04-12T01:57:49.453Z,1.10
2023-04-12T01:58:53.566Z,0.90
2023-04-12T01:59:58.679Z,0.98
2023-04-12T02:01:03.135Z,1.00
2023-04-12T02:02:06.045Z,1.27
2023-04-12T02:03:08.724Z,0.88
2023-04-12T02:04:11.754Z,1.10
2023-04-12T02:05:14.068Z,0.93
2023-04-12T02:06:19.644Z,0.90
2023-04-12T02:07:21.945Z,1.25
2023-04-12T02:08:24.174Z,1.30
2023-04-12T02:09:27.439Z,1.10
2023-04-12T02:10:30.940Z,1.27
2023-04-12T02:11:32.780Z,1.10
2023-04-12T02:12:34.552Z,1.33
2023-04-12T02:13:37.592Z,1.00
2023-04-12T02:14:40.109Z,1.10
2023-04-12T02:15:41.913Z,1.15
2023-04-12T02:16:44.844Z,1.10
2023-04-12T02:17:46.933Z,1.30
2023-04-12T02:18:51.977Z,1.02
2023-04-12T02:19:54.358Z,0.90
2023-04-12T02:20:56.824Z,1.27
2023-04-12T02:21:58.606Z,1.17
2023-04-12T02:23:01.075Z,0.90
2023-04-12T02:24:02.933Z,0.93
2023-04-12T02:25:08.384Z,1.40
2023-04-12T02:26:11.348Z,1.30
2023-04-12T02:27:13.165Z,1.05
2023-04-12T02:28:15.141Z,1.08
2023-04-12T02:29:17.638Z,1.20
2023-04-12T02:30:22.875Z,1.00
2023-04-12T02:31:28.106Z,1.10
2023-04-12T02:32:32.963Z,1.13
2023-04-12T02:33:36.924Z,0.98
2023-04-12T02:34:44.228Z,1.00
2023-04-12T02:35:52.475Z,1.23
2023-04-12T02:36:55.874Z,1.20
2023-04-12T02:37:57.953Z,1.10
2023-04-12T02:39:04.239Z,1.20
2023-04-12T02:40:11.305Z,1.30
2023-04-12T02:41:18.794Z,1.38
2023-04-12T02:42:20.926Z,1.20
2023-04-12T02:43:24.093Z,1.15
2023-04-12T02:44:33.920Z,1.50
2023-04-12T02:45:54.584Z,1.17
2023-04-12T02:46:56.520Z,1.10
2023-04-12T02:47:58.584Z,1.45
2023-04-12T02:49:03.905Z,1.25
2023-04-12T02:50:10.983Z,1.23
2023-04-12T02:51:23.411Z,1.08
2023-04-12T02:52:26.156Z,1.30
2023-04-12T02:53:41.984Z,1.05
2023-04-12T02:54:51.400Z,1.50
2023-04-12T02:55:53.328Z,1.38
2023-04-12T02:56:58.822Z,1.33
2023-04-12T02:58:21.243Z,1.63
2023-04-12T02:59:25.896Z,1.00
2023-04-12T03:00:53.974Z,1.30
2023-04-12T03:02:01.611Z,1.30
2023-04-12T03:03:08.959Z,1.23
2023-04-12T03:04:11.274Z,1.05
2023-04-12T03:05:21.450Z,1.05
2023-04-12T03:06:23.312Z,1.30
2023-04-12T03:07:25.295Z,1.40
2023-04-12T03:08:28.738Z,1.02
2023-04-12T03:09:33.100Z,1.10
2023-04-12T03:10:35.628Z,1.05
2023-04-12T03:11:38.433Z,1.20
2023-04-12T03:12:41.326Z,1.23
2023-04-12T03:13:52.475Z,1.20
2023-04-12T03:14:54.879Z,1.42
2023-04-12T03:16:00.258Z,1.40
2023-04-12T03:17:11.017Z,1.20
2023-04-12T03:18:12.883Z,1.48
2023-04-12T03:19:23.565Z,1.20
2023-04-12T03:20:29.569Z,1.20
2023-04-12T03:21:41.352Z,1.30
2023-04-12T03:22:43.220Z,1.15
2023-04-12T03:23:45.541Z,0.88
2023-04-12T03:24:51.771Z,1.30
2023-04-12T03:25:56.209Z,1.30
2023-04-12T03:27:10.494Z,1.25
2023-04-12T03:28:12.753Z,1.20
2023-04-12T03:29:26.143Z,1.30
2023-04-12T03:30:29.636Z,1.10
2023-04-12T03:31:32.887Z,1.23
2023-04-12T03:32:41.924Z,1.10
2023-04-12T03:33:45.606Z,1.10
2023-04-12T03:35:08.796Z,1.38
2023-04-12T03:36:11.258Z,1.17
2023-04-12T03:37:13.601Z,1.42
2023-04-12T03:38:17.227Z,1.25
2023-04-12T03:39:19.298Z,1.20
2023-04-12T03:40:25.827Z,1.00
2023-04-12T03:41:34.001Z,1.23
2023-04-12T03:42:38.972Z,1.13
2023-04-12T03:43:46.830Z,1.58
2023-04-12T03:44:54.052Z,1.10
2023-04-12T03:45:57.352Z,1.40
2023-04-12T03:47:00.768Z,1.30
2023-04-12T03:48:08.793Z,1.35
2023-04-12T03:49:16.910Z,1.23
2023-04-12T03:50:22.678Z,1.30
2023-04-12T03:51:30.840Z,1.20
2023-04-12T03:52:38.411Z,1.65
2023-04-12T03:53:42.031Z,1.30
2023-04-12T03:54:48.651Z,1.15
2023-04-12T03:55:58.799Z,1.38
2023-04-12T03:57:05.548Z,1.40
2023-04-12T03:58:16.380Z,1.08
2023-04-12T03:59:20.321Z,1.33
2023-04-12T04:00:24.397Z,1.13
2023-04-12T04:01:36.408Z,1.27
2023-04-12T04:02:38.660Z,1.35
2023-04-12T04:03:46.060Z,1.08
2023-04-12T04:04:58.419Z,1.05
2023-04-12T04:06:02.609Z,1.05
2023-04-12T04:07:07.941Z,1.50
2023-04-12T04:08:18.846Z,1.50
2023-04-12T04:09:26.217Z,1.10
2023-04-12T04:10:28.740Z,1.10
2023-04-12T04:11:32.087Z,1.35
2023-04-12T04:12:40.528Z,1.25
2023-04-12T04:13:46.786Z,1.48
2023-04-12T04:14:53.870Z,1.20
2023-04-12T04:16:21.923Z,1.10
2023-04-12T04:17:25.713Z,1.20
2023-04-12T04:18:28.794Z,1.40
2023-04-12T04:19:30.913Z,1.20
2023-04-12T04:20:32.969Z,1.60
2023-04-12T04:21:35.119Z,1.58
2023-04-12T04:22:37.030Z,1.50
2023-04-12T04:23:39.463Z,1.60
2023-04-12T04:24:42.770Z,1.58
2023-04-12T04:25:45.186Z,1.60
2023-04-12T04:26:50.389Z,1.73
2023-04-12T04:27:59.741Z,1.33
2023-04-12T04:29:05.272Z,1.40
2023-04-12T04:30:15.366Z,1.42
2023-04-12T04:31:22.410Z,1.25
2023-04-12T04:32:25.759Z,1.20
2023-04-12T04:33:32.812Z,1.48
2023-04-12T04:34:37.250Z,1.55
2023-04-12T04:35:44.993Z,1.67
2023-04-12T04:37:03.057Z,1.40
2023-04-12T04:38:04.843Z,1.50
2023-04-12T04:39:06.650Z,1.33
2023-04-12T04:40:15.339Z,1.48
2023-04-12T04:41:17.652Z,1.50
2023-04-12T04:42:26.506Z,1.30
2023-04-12T04:43:40.210Z,1.98
2023-04-12T04:44:42.700Z,1.42
2023-04-12T04:45:49.367Z,1.58
2023-04-12T04:46:52.545Z,1.67
2023-04-12T04:47:55.084Z,1.58
2023-04-12T04:48:57.001Z,1.75
2023-04-12T04:50:00.196Z,2.13
2023-04-12T04:51:02.812Z,1.50
2023-04-12T04:52:04.872Z,1.90
2023-04-12T04:53:06.670Z,1.92
2023-04-12T04:54:08.790Z,1.65
2023-04-12T04:55:15.049Z,1.60
2023-04-12T04:56:20.089Z,1.42
2023-04-12T04:57:26.816Z,1.50
2023-04-12T04:58:31.292Z,1.50
2023-04-12T04:59:34.549Z,1.30
2023-04-12T05:00:49.030Z,1.55
2023-04-12T05:01:52.456Z,1.70
2023-04-12T05:02:55.750Z,1.58
2023-04-12T05:04:01.210Z,1.65
2023-04-12T05:05:04.378Z,1.92
2023-04-12T05:06:08.819Z,1.58
2023-04-12T05:07:14.348Z,1.65
2023-04-12T05:08:19.442Z,1.30
2023-04-12T05:09:23.271Z,1.55
2023-04-12T05:10:30.779Z,1.70
2023-04-12T05:11:37.383Z,1.55
2023-04-12T05:12:44.104Z,1.40
2023-04-12T05:13:48.109Z,1.50
2023-04-12T05:14:51.750Z,1.55
2023-04-12T05:15:54.431Z,1.30
2023-04-12T05:16:57.284Z,1.63
2023-04-12T05:17:59.279Z,1.40
2023-04-12T05:19:01.231Z,1.50
2023-04-12T05:20:06.454Z,1.63
2023-04-12T05:21:08.382Z,1.30
2023-04-12T05:22:10.637Z,1.60
2023-04-12T05:23:12.464Z,1.23
2023-04-12T05:24:14.291Z,1.35
2023-04-12T05:25:20.918Z,1.13
2023-04-12T05:26:30.492Z,1.70
2023-04-12T05:27:33.718Z,1.30
2023-04-12T05:28:37.220Z,1.50
2023-04-12T05:29:39.084Z,1.30
2023-04-12T05:30:44.615Z,1.50
2023-04-12T05:31:49.420Z,1.35
2023-04-12T05:32:54.945Z,1.58
2023-04-12T05:33:56.945Z,1.63
2023-04-12T05:35:05.604Z,1.55
2023-04-12T05:36:08.135Z,1.40
2023-04-12T05:37:11.119Z,1.42
2023-04-12T05:38:14.312Z,1.35
2023-04-12T05:39:18.232Z,1.33
2023-04-12T05:40:21.613Z,1.30
2023-04-12T05:41:27.362Z,1.35
2023-04-12T05:42:29.166Z,1.33
2023-04-12T05:43:34.011Z,1.33
2023-04-12T05:44:38.770Z,1.40
2023-04-12T05:45:44.381Z,1.35
2023-04-12T05:46:46.328Z,1.00
2023-04-12T05:47:48.568Z,1.10
2023-04-12T05:48:50.632Z,1.10
2023-04-12T05:49:54.085Z,1.40
2023-04-12T05:50:55.907Z,1.15
2023-04-12T05:51:58.911Z,1.23
2023-04-12T05:53:01.894Z,1.20
2023-04-12T05:54:07.317Z,1.55
2023-04-12T05:55:10.528Z,1.40
2023-04-12T05:56:16.292Z,1.30
2023-04-12T05:57:19.358Z,1.48
2023-04-12T05:58:23.556Z,1.50
2023-04-12T05:59:30.937Z,1.30
2023-04-12T06:00:33.383Z,1.50
2023-04-12T06:01:35.302Z,1.27
2023-04-12T06:02:37.903Z,1.40
2023-04-12T06:03:41.895Z,1.85
2023-04-12T06:04:50.626Z,1.60
2023-04-12T06:05:54.140Z,1.58
2023-04-12T06:06:56.315Z,1.40
2023-04-12T06:08:00.007Z,1.27
2023-04-12T06:09:02.790Z,1.60
2023-04-12T06:10:05.340Z,1.67
2023-04-12T06:11:08.480Z,1.67
2023-04-12T06:12:11.039Z,1.60
2023-04-12T06:13:12.824Z,1.70
2023-04-12T06:14:17.342Z,2.05
2023-04-12T06:15:21.097Z,1.50
2023-04-12T06:16:28.457Z,1.55
2023-04-12T06:17:30.430Z,1.92
2023-04-12T06:18:32.472Z,1.75
2023-04-12T06:19:34.289Z,2.20
2023-04-12T06:20:39.645Z,1.70
2023-04-12T06:21:41.739Z,1.70
2023-04-12T06:22:44.365Z,1.40
2023-04-12T06:23:48.840Z,1.48
2023-04-12T06:24:52.262Z,1.55
2023-04-12T06:25:54.752Z,1.65
2023-04-12T06:26:56.571Z,1.85
2023-04-12T06:27:58.554Z,1.70
2023-04-12T06:29:01.407Z,1.67
2023-04-12T06:30:03.627Z,1.63
2023-04-12T06:31:09.747Z,1.50
2023-04-12T06:32:13.951Z,1.77
2023-04-12T06:33:16.016Z,1.60
2023-04-12T06:34:17.996Z,1.70
2023-04-12T06:35:21.600Z,1.90
2023-04-12T06:36:23.970Z,1.25
2023-04-12T06:37:25.724Z,1.80
2023-04-12T06:38:27.640Z,1.90
2023-04-12T06:39:29.421Z,1.70
2023-04-12T06:40:31.512Z,1.80
2023-04-12T06:41:33.347Z,1.65
2023-04-12T06:42:36.667Z,1.75
2023-04-12T06:43:38.826Z,1.80
2023-04-12T06:44:40.862Z,1.95
2023-04-12T06:45:42.763Z,1.65
2023-04-12T06:46:44.782Z,1.90
2023-04-12T06:47:47.546Z,1.40
2023-04-12T06:48:49.352Z,1.60
2023-04-12T06:49:56.193Z,1.65
2023-04-12T06:50:58.420Z,1.80
2023-04-12T06:52:00.452Z,1.73
2023-04-12T06:53:02.253Z,1.63
2023-04-12T06:54:04.088Z,1.63
2023-04-12T06:55:07.207Z,1.45
2023-04-12T06:56:09.145Z,1.52
2023-04-12T06:57:11.536Z,1.50
2023-04-12T06:58:13.292Z,1.60
2023-04-12T06:59:15.471Z,1.60
2023-04-12T07:00:17.421Z,1.77
2023-04-12T07:01:19.342Z,1.60
2023-04-12T07:02:21.282Z,1.60
2023-04-12T07:03:24.678Z,1.55
2023-04-12T07:04:26.654Z,1.85
2023-04-12T07:05:28.478Z,1.70
2023-04-12T07:06:30.324Z,1.70
2023-04-12T07:07:32.253Z,1.70
2023-04-12T07:08:35.748Z,1.75
2023-04-12T07:09:37.556Z,1.83
2023-04-12T07:10:39.397Z,1.50
2023-04-12T07:11:41.432Z,2.22
2023-04-12T07:12:43.224Z,1.55
2023-04-12T07:13:45.010Z,1.60
2023-04-12T07:14:46.803Z,1.77
2023-04-12T07:15:50.566Z,1.48
2023-04-12T07:16:52.460Z,1.77
2023-04-12T07:17:54.377Z,1.70
2023-04-12T07:18:56.645Z,1.90
2023-04-12T07:19:58.905Z,1.65
2023-04-12T07:21:00.791Z,1.80
2023-04-12T07:22:02.549Z,2.03
2023-04-12T07:23:04.325Z,1.50
2023-04-12T07:24:06.372Z,1.50
2023-04-12T07:25:10.978Z,1.60
2023-04-12T07:26:12.831Z,1.52
2023-04-12T07:27:14.710Z,1.80
2023-04-12T07:28:16.814Z,2.00
2023-04-12T07:29:19.130Z,1.60
2023-04-12T07:30:21.364Z,1.60
2023-04-12T07:31:24.018Z,2.03
2023-04-12T07:32:26.031Z,1.70
2023-04-12T07:33:28.131Z,1.90
2023-04-12T07:34:30.459Z,1.80
2023-04-12T07:35:33.062Z,1.52
2023-04-12T07:36:34.879Z,1.60
2023-04-12T07:37:37.596Z,1.60
2023-04-12T07:38:39.401Z,1.55
2023-04-12T07:39:41.424Z,1.40
2023-04-12T07:40:43.223Z,1.55
2023-04-12T07:41:46.922Z,1.40
2023-04-12T07:42:48.726Z,1.88
2023-04-12T07:43:50.645Z,1.55
2023-04-12T07:44:52.403Z,1.73
2023-04-12T07:45:57.414Z,1.60
2023-04-12T07:46:59.270Z,1.60
2023-04-12T07:48:01.212Z,1.80
2023-04-12T07:49:03.764Z,1.70
2023-04-12T07:50:06.968Z,1.60
2023-04-12T07:51:09.197Z,2.10
2023-04-12T07:52:11.080Z,1.63
2023-04-12T07:53:27.755Z,1.75
2023-04-12T07:54:29.742Z,1.63
2023-04-12T07:55:31.507Z,1.60
2023-04-12T07:56:36.563Z,1.90
2023-04-12T07:57:38.421Z,1.95
2023-04-12T07:58:40.542Z,1.55
2023-04-12T07:59:42.423Z,1.88
2023-04-12T08:00:48.028Z,1.80
2023-04-12T08:01:49.827Z,1.70
2023-04-12T08:02:51.797Z,1.70
2023-04-12T08:03:53.934Z,1.85
2023-04-12T08:04:55.918Z,1.55
2023-04-12T08:05:57.725Z,1.40
2023-04-12T08:06:59.591Z,1.70
2023-04-12T08:08:01.406Z,1.88
2023-04-12T08:09:03.231Z,1.77
2023-04-12T08:10:05.786Z,1.75
2023-04-12T08:11:07.711Z,1.70
2023-04-12T08:12:09.501Z,1.85
2023-04-12T08:13:11.319Z,2.03
2023-04-12T08:14:13.591Z,1.70
2023-04-12T08:15:15.377Z,1.60
2023-04-12T08:16:17.272Z,1.67
2023-04-12T08:17:19.182Z,2.00
2023-04-12T08:18:21.125Z,1.33
2023-04-12T08:19:23.127Z,1.70
2023-04-12T08:20:24.981Z,1.73
2023-04-12T08:21:27.800Z,1.70
2023-04-12T08:22:30.020Z,1.75
2023-04-12T08:23:31.872Z,1.50
2023-04-12T08:24:33.645Z,1.63
2023-04-12T08:25:35.580Z,1.52
2023-04-12T08:26:38.178Z,1.60
2023-04-12T08:27:42.665Z,1.73
2023-04-12T08:28:44.823Z,1.33
2023-04-12T08:29:46.718Z,1.73
2023-04-12T08:30:48.531Z,1.70
2023-04-12T08:31:50.428Z,1.50
2023-04-12T08:32:53.463Z,1.50
2023-04-12T08:33:56.724Z,1.50
2023-04-12T08:34:59.013Z,1.42
2023-04-12T08:36:01.971Z,1.58
2023-04-12T08:37:03.983Z,1.73
2023-04-12T08:38:07.857Z,1.33
2023-04-12T08:39:09.782Z,1.60
2023-04-12T08:40:12.425Z,1.58
2023-04-12T08:41:15.082Z,1.88
2023-04-12T08:42:17.366Z,1.60
2023-04-12T08:43:19.713Z,1.38
2023-04-12T08:44:38.416Z,1.55
2023-04-12T08:45:40.393Z,1.45
2023-04-12T08:46:42.845Z,1.60
2023-04-12T08:47:45.205Z,1.75
2023-04-12T08:48:49.555Z,1.52
2023-04-12T08:49:51.422Z,1.42
2023-04-12T08:50:54.827Z,1.30
2023-04-12T08:52:08.975Z,1.50
2023-04-12T08:53:11.940Z,1.67
2023-04-12T08:54:13.848Z,1.58
2023-04-12T08:55:15.717Z,1.55
2023-04-12T08:56:17.554Z,1.85
2023-04-12T08:57:20.365Z,1.40
2023-04-12T08:58:23.606Z,1.40
2023-04-12T08:59:29.194Z,1.65
2023-04-12T09:00:31.137Z,1.65
2023-04-12T09:01:33.707Z,1.55
2023-04-12T09:02:39.522Z,1.70
2023-04-12T09:03:45.651Z,1.60
2023-04-12T09:04:52.620Z,1.52
2023-04-12T09:05:54.494Z,1.30
2023-04-12T09:06:56.670Z,1.42
2023-04-12T09:07:58.901Z,1.80
2023-04-12T09:09:01.586Z,1.85
2023-04-12T09:10:04.813Z,1.50
2023-04-12T09:11:26.797Z,1.60
2023-04-12T09:12:28.836Z,1.55
2023-04-12T09:13:35.573Z,1.88
2023-04-12T09:14:38.880Z,1.58
2023-04-12T09:15:49.499Z,1.50
2023-04-12T09:16:51.954Z,1.30
2023-04-12T09:18:08.390Z,1.45
2023-04-12T09:19:10.336Z,1.65
2023-04-12T09:20:18.465Z,1.73
2023-04-12T09:21:20.275Z,1.48
2023-04-12T09:22:35.510Z,1.50
2023-04-12T09:23:37.450Z,1.52
2023-04-12T09:24:51.680Z,1.50
2023-04-12T09:25:53.821Z,1.73
2023-04-12T09:27:06.078Z,1.70
2023-04-12T09:28:27.332Z,1.45
2023-04-12T09:29:29.773Z,1.65
2023-04-12T09:30:42.319Z,1.30
2023-04-12T09:31:55.672Z,1.60
2023-04-12T09:33:11.600Z,1.83
2023-04-12T09:34:13.424Z,1.48
2023-04-12T09:35:15.513Z,1.80
2023-04-12T09:36:19.135Z,2.08
2023-04-12T09:37:21.037Z,1.38
2023-04-12T09:38:22.859Z,1.60
2023-04-12T09:39:35.101Z,1.40
2023-04-12T09:40:37.918Z,1.77
2023-04-12T09:41:39.713Z,1.80
2023-04-12T09:42:54.305Z,1.60
2023-04-12T09:43:56.490Z,1.38
2023-04-12T09:44:59.567Z,1.50
2023-04-12T09:46:14.420Z,1.75
2023-04-12T09:47:16.474Z,1.60
2023-04-12T09:48:21.108Z,1.45
2023-04-12T09:49:40.080Z,1.80
2023-04-12T09:50:42.178Z,1.42
2023-04-12T09:51:51.628Z,1.70
2023-04-12T09:52:54.882Z,2.03
2023-04-12T09:54:06.921Z,1.73
2023-04-12T09:55:10.298Z,1.50
2023-04-12T09:56:13.442Z,1.60
2023-04-12T09:57:19.184Z,1.65
2023-04-12T09:58:22.032Z,1.52
2023-04-12T09:59:28.287Z,1.58
2023-04-12T10:00:32.055Z,1.50
2023-04-12T10:01:40.390Z,1.40
2023-04-12T10:02:45.104Z,1.60
2023-04-12T10:03:48.928Z,1.63
2023-04-12T10:04:51.628Z,1.98
2023-04-12T10:05:55.248Z,1.80
2023-04-12T10:07:01.189Z,1.65
2023-04-12T10:08:04.833Z,1.70
2023-04-12T10:09:08.721Z,1.75
2023-04-12T10:10:12.691Z,1.60
2023-04-12T10:11:14.899Z,1.58
2023-04-12T10:12:17.328Z,1.88
2023-04-12T10:13:20.088Z,1.63
2023-04-12T10:14:22.710Z,1.95
2023-04-12T10:15:25.678Z,1.83
2023-04-12T10:16:37.955Z,1.80
2023-04-12T10:17:46.638Z,1.52
2023-04-12T10:18:50.431Z,2.05
2023-04-12T10:19:53.004Z,1.73
2023-04-12T10:20:55.624Z,1.95
2023-04-12T10:21:58.478Z,1.52
2023-04-12T10:23:00.687Z,1.70
2023-04-12T10:24:07.200Z,1.77
2023-04-12T10:25:13.504Z,1.60
2023-04-12T10:26:16.972Z,1.63
2023-04-12T10:27:26.460Z,1.83
2023-04-12T10:28:28.233Z,1.70
2023-04-12T10:29:38.638Z,2.17
2023-04-12T10:30:40.652Z,1.70
2023-04-12T10:31:42.805Z,1.60
2023-04-12T10:32:44.838Z,1.67
2023-04-12T10:33:47.690Z,1.80
2023-04-12T10:34:54.658Z,1.60
2023-04-12T10:36:08.748Z,1.70
2023-04-12T10:37:10.957Z,1.50
2023-04-12T10:38:12.777Z,1.83
2023-04-12T10:39:15.389Z,1.67
2023-04-12T10:40:19.163Z,1.17
2023-04-12T10:41:22.227Z,1.63
2023-04-12T10:42:28.755Z,1.83
2023-04-12T10:43:33.401Z,1.42
2023-04-12T10:44:36.034Z,1.48
2023-04-12T10:45:38.493Z,1.90
2023-04-12T10:46:40.671Z,1.80
2023-04-12T10:47:48.580Z,1.90
2023-04-12T10:48:53.794Z,1.90
2023-04-12T10:50:32.216Z,1.73
2023-04-12T10:51:36.079Z,1.50
2023-04-12T10:52:44.483Z,1.52
2023-04-12T10:53:46.897Z,1.40
2023-04-12T10:54:57.302Z,1.38
2023-04-12T10:55:59.126Z,1.80
2023-04-12T10:57:04.665Z,1.33
2023-04-12T10:58:47.707Z,1.77
2023-04-12T10:59:56.767Z,1.60
2023-04-12T11:00:58.970Z,1.88
2023-04-12T11:02:13.745Z,1.55
2023-04-12T11:03:20.017Z,1.55
2023-04-12T11:04:22.382Z,1.75
2023-04-12T11:06:12.628Z,1.55
2023-04-12T11:07:44.906Z,1.50
2023-04-12T11:09:25.654Z,1.45
2023-04-12T11:10:28.605Z,1.63
2023-04-12T11:11:34.888Z,2.00
2023-04-12T11:12:38.727Z,1.70
2023-04-12T11:13:41.220Z,1.90
2023-04-12T11:14:47.010Z,2.00
2023-04-12T11:15:55.005Z,1.70
2023-04-12T11:17:06.140Z,2.08
2023-04-12T11:18:08.237Z,1.90
2023-04-12T11:19:10.786Z,1.63
2023-04-12T11:20:13.634Z,1.80
2023-04-12T11:21:15.831Z,2.03
2023-04-12T11:22:19.957Z,2.35
2023-04-12T11:23:22.098Z,1.80
2023-04-12T11:24:23.916Z,2.00
2023-04-12T11:25:26.178Z,1.95
2023-04-12T11:26:31.414Z,1.60
2023-04-12T11:27:34.463Z,1.77
2023-04-12T11:28:36.237Z,1.70
2023-04-12T11:29:38.668Z,1.95
2023-04-12T11:30:49.899Z,1.60
2023-04-12T11:31:51.807Z,2.00
2023-04-12T11:32:53.677Z,1.90
2023-04-12T11:33:56.280Z,2.10
2023-04-12T11:34:58.917Z,1.95
2023-04-12T11:36:06.484Z,2.10
2023-04-12T11:37:09.422Z,1.80
2023-04-12T11:38:11.285Z,1.70
2023-04-12T11:39:13.894Z,1.70
2023-04-12T11:40:16.075Z,1.83
2023-04-12T11:41:18.692Z,2.00
2023-04-12T11:42:23.861Z,1.70
2023-04-12T11:43:25.784Z,2.17
2023-04-12T11:44:27.847Z,1.75
2023-04-12T11:45:31.988Z,1.55
2023-04-12T11:46:34.247Z,1.80
2023-04-12T11:47:36.749Z,1.70
2023-04-12T11:48:38.937Z,2.10
2023-04-12T11:49:44.802Z,2.00
2023-04-12T11:50:51.846Z,2.13
2023-04-12T11:52:04.618Z,2.08
2023-04-12T11:53:13.509Z,1.77
2023-04-12T11:54:15.679Z,1.85
2023-04-12T11:55:17.737Z,2.00
2023-04-12T11:56:19.728Z,1.67
2023-04-12T11:57:21.638Z,2.03
2023-04-12T11:58:27.335Z,1.88
2023-04-12T11:59:33.939Z,2.15
2023-04-12T12:00:36.335Z,2.35
2023-04-12T12:01:38.383Z,1.55
2023-04-12T12:02:46.541Z,2.08
2023-04-12T12:03:55.275Z,2.08
2023-04-12T12:04:57.732Z,1.75
2023-04-12T12:05:59.919Z,1.58
2023-04-12T12:07:02.625Z,2.03
2023-04-12T12:08:07.595Z,2.00
2023-04-12T12:09:09.818Z,2.42
2023-04-12T12:10:13.359Z,1.90
2023-04-12T12:11:21.614Z,2.30
2023-04-12T12:12:24.780Z,2.03
2023-04-12T12:13:26.621Z,2.10
2023-04-12T12:14:29.221Z,2.00
2023-04-12T12:15:31.859Z,1.90
2023-04-12T12:16:35.950Z,1.83
2023-04-12T12:17:38.863Z,1.80
2023-04-12T12:18:45.114Z,1.98
2023-04-12T12:19:46.990Z,2.10
2023-04-12T12:20:50.559Z,1.95
2023-04-12T12:21:52.408Z,1.95
2023-04-12T12:22:54.583Z,1.70
2023-04-12T12:23:57.393Z,2.00
2023-04-12T12:25:01.125Z,2.00
2023-04-12T12:26:17.559Z,2.20
2023-04-12T12:27:23.314Z,1.85
2023-04-12T12:28:25.360Z,1.95
2023-04-12T12:29:34.188Z,1.98
2023-04-12T12:30:40.248Z,1.90
2023-04-12T12:31:46.841Z,1.80
2023-04-12T12:32:50.339Z,1.50
2023-04-12T12:33:57.340Z,1.98
2023-04-12T12:34:59.576Z,1.60
2023-04-12T12:36:01.590Z,2.30
2023-04-12T12:37:03.873Z,1.80
2023-04-12T12:38:08.635Z,1.73
2023-04-12T12:39:12.853Z,2.08
2023-04-12T12:40:15.473Z,1.90
2023-04-12T12:41:27.496Z,1.98
2023-04-12T12:42:29.310Z,1.73
2023-04-12T12:43:32.880Z,1.73
2023-04-12T12:44:37.567Z,2.10
2023-04-12T12:45:41.038Z,1.92
2023-04-12T12:47:49.346Z,2.00
2023-04-12T12:48:51.363Z,2.05
2023-04-12T12:49:53.548Z,1.67
2023-04-12T12:50:55.598Z,1.83
2023-04-12T12:51:57.452Z,2.05
2023-04-12T12:53:03.423Z,2.03
2023-04-12T12:54:06.366Z,2.03
2023-04-12T12:55:08.604Z,2.13
2023-04-12T12:56:12.175Z,1.88
2023-04-12T12:57:14.136Z,1.95
2023-04-12T12:58:15.925Z,1.92
2023-04-12T12:59:17.938Z,2.03
2023-04-12T13:00:22.076Z,2.13
2023-04-12T13:01:23.868Z,1.65
2023-04-12T13:02:25.919Z,2.35
2023-04-12T13:03:28.095Z,2.10
2023-04-12T13:04:30.193Z,1.77
2023-04-12T13:05:32.170Z,1.80
2023-04-12T13:06:33.987Z,1.90
2023-04-12T13:07:35.987Z,1.85
2023-04-12T13:08:37.840Z,1.92
2023-04-12T13:09:39.648Z,2.00
2023-04-12T13:10:41.502Z,1.90
2023-04-12T13:11:43.315Z,2.05
2023-04-12T13:12:45.221Z,1.88
2023-04-12T13:13:47.281Z,1.98
2023-04-12T13:14:49.140Z,1.77
2023-04-12T13:15:52.923Z,2.03
2023-04-12T13:16:55.053Z,2.03
2023-04-12T13:17:56.938Z,2.30
2023-04-12T13:18:59.074Z,2.05
2023-04-12T13:20:01.424Z,2.13
2023-04-12T13:21:03.433Z,2.17
2023-04-12T13:22:07.379Z,1.88
2023-04-12T13:23:09.654Z,2.30
2023-04-12T13:24:11.477Z,1.73
2023-04-12T13:25:13.296Z,2.08
2023-04-12T13:26:15.242Z,1.70
2023-04-12T13:27:17.781Z,1.80
2023-04-12T13:28:20.762Z,1.80
2023-04-12T13:29:22.822Z,1.73
2023-04-12T13:30:24.604Z,1.90
2023-04-12T13:31:26.427Z,1.88
2023-04-12T13:32:28.414Z,2.08
2023-04-12T13:33:30.678Z,2.00
2023-04-12T13:34:32.875Z,2.00
2023-04-12T13:35:34.760Z,2.20
2023-04-12T13:36:36.660Z,1.63
2023-04-12T13:37:38.581Z,2.00
2023-04-12T13:38:40.491Z,2.10
2023-04-12T13:39:42.861Z,1.98
2023-04-12T13:40:44.666Z,1.77
2023-04-12T13:41:46.506Z,1.80
2023-04-12T13:42:48.310Z,1.70
2023-04-12T13:43:50.320Z,2.22
2023-04-12T13:44:52.126Z,2.42
2023-04-12T13:45:54.020Z,1.95
2023-04-12T13:46:56.943Z,1.73
2023-04-12T13:47:58.824Z,1.75
2023-04-12T13:49:00.866Z,1.88
2023-04-12T13:50:02.874Z,1.60
2023-04-12T13:51:04.861Z,1.95
2023-04-12T13:52:07.129Z,1.70
2023-04-12T13:53:08.989Z,1.95
2023-04-12T13:54:11.031Z,2.05
2023-04-12T13:55:12.878Z,1.77
2023-04-12T13:56:16.266Z,1.60
2023-04-12T13:57:18.127Z,1.83
2023-04-12T13:58:19.924Z,1.83
2023-04-12T13:59:21.680Z,2.20
2023-04-12T14:00:23.871Z,1.67
2023-04-12T14:01:26.125Z,1.90
2023-04-12T14:02:29.359Z,1.80
2023-04-12T14:03:33.178Z,1.67
2023-04-12T14:04:35.120Z,2.00
2023-04-12T14:05:36.997Z,2.15
2023-04-12T14:06:38.850Z,1.63
2023-04-12T14:07:40.940Z,1.77
2023-04-12T14:08:42.719Z,2.10
2023-04-12T14:09:44.555Z,1.90
2023-04-12T14:10:46.416Z,2.22
2023-04-12T14:11:48.306Z,2.00
2023-04-12T14:12:50.092Z,2.15
2023-04-12T14:13:51.922Z,1.95
2023-04-12T14:14:53.773Z,1.60
2023-04-12T14:15:58.594Z,1.80
2023-04-12T14:17:01.970Z,2.05
2023-04-12T14:18:04.010Z,1.88
2023-04-12T14:19:05.836Z,2.08
2023-04-12T14:20:12.665Z,2.17
2023-04-12T14:21:14.532Z,2.05
2023-04-12T14:22:16.407Z,1.88
2023-04-12T14:23:18.916Z,1.80